Portada
METAR-TAF:

METAR-TAF

Aeroports :

Udon Thani, Tailàndia

latitud: 17-23N, longitud: 102-48E, altitud: 177 m

Observació

L'informe es va fer fa 7 hores i 37 minuts, a les 11:00 UTC
Vent 4 kt del Sud/Sud-Est, variant entre Est/Sud-Est i Sud
Temperatura 34°C
Humitat 56%
Pressió 1007 hPa
Visibilitat 10 km o més
Escasses núvols a una alçada de 4000 ft

METAR: VTUD 261100Z 15004KT 120V180 9999 FEW040 34/24 Q1007 NOSIG

Hora: 01:37 (18:37 UTC)

Pronòstic

L'informe es va fer fa 1 hora i 37 minuts, a les 17:00 UTC
Pronòstic vàlid del 26 a les 18 UTC al 27 a les 18 UTC
Vent 5 kt del Sud/Sud-Oest
Visibilitat 10 km o més
Núvols disperses a una alçada de 3000 ft
Temporalment
l' 27 a les 07 UTC al 27 a les 13 UTC
Vent 15 kt amb direcció variable
Visibilitat: 4000 m
Escasses núvols a una alçada de 1800 ft, Cumulonimbus.
Cel ennuvolat a una alçada de 3000 ft
tempesta, pluja

TAF: VTUD 261700Z 2618/2718 20005KT 9999 SCT030 TEMPO 2707/2713 VRB15KT 4000 TSRA FEW018CB BKN030

Observacions i pronòstics meteorològics de més de 4000 aeroports (METAR i TAF).

Les estacions disponibles són els punts grocs i vermells al mapa.

Posi el ratolí al punt desitjat per veure el nom de l'estació.

Feu clic per veure les observacions i els pronòstics meteorològics.

Per canviar el mapa: feu clic els botons verds amb una creu de color negre per apropar; al botó verd amb un guió per allunyar la imatge; o en les fletxes verdes per a mapes adjacents.


METAR-TAF: